createdAt,value
2019-01-20T00:00:35.930Z,-1.53
2019-01-20T00:03:02.072Z,-1.54
2019-01-20T00:05:28.833Z,-1.50
2019-01-20T00:07:54.945Z,-1.54
2019-01-20T00:10:21.097Z,-1.60
2019-01-20T00:12:47.203Z,-1.62
2019-01-20T00:15:16.077Z,-1.60
2019-01-20T00:17:42.240Z,-1.63
2019-01-20T00:20:08.495Z,-1.68
2019-01-20T00:22:34.624Z,-1.69
2019-01-20T00:25:00.745Z,-1.72
2019-01-20T00:27:26.872Z,-1.76
2019-01-20T00:29:52.980Z,-1.83
2019-01-20T00:32:19.173Z,-1.87
2019-01-20T00:34:45.301Z,-1.90
2019-01-20T00:37:11.450Z,-1.96
2019-01-20T00:39:37.589Z,-2.00
2019-01-20T00:42:03.813Z,-2.01
2019-01-20T00:44:29.981Z,-2.03
2019-01-20T00:46:56.107Z,-2.05
2019-01-20T00:49:22.390Z,-2.07
2019-01-20T00:51:48.468Z,-2.08
2019-01-20T00:54:14.848Z,-2.08
2019-01-20T00:56:40.979Z,-2.10
2019-01-20T00:59:07.127Z,-2.14
2019-01-20T01:01:33.288Z,-2.14
2019-01-20T01:03:59.510Z,-2.17
2019-01-20T01:06:25.768Z,-2.19
2019-01-20T01:08:51.888Z,-2.22
2019-01-20T01:11:18.018Z,-2.24
2019-01-20T01:13:44.164Z,-2.26
2019-01-20T01:16:10.297Z,-2.27
2019-01-20T01:18:36.440Z,-2.28
2019-01-20T01:21:02.561Z,-2.26
2019-01-20T01:23:28.785Z,-2.27
2019-01-20T01:25:55.015Z,-2.30
2019-01-20T01:28:21.236Z,-2.30
2019-01-20T01:30:47.456Z,-2.31
2019-01-20T01:33:13.598Z,-2.33
2019-01-20T01:35:39.742Z,-2.31
2019-01-20T01:38:05.870Z,-2.31
2019-01-20T01:40:32.004Z,-2.26
2019-01-20T01:42:58.122Z,-2.20
2019-01-20T01:45:24.440Z,-2.21
2019-01-20T01:47:50.542Z,-2.21
2019-01-20T01:50:16.898Z,-2.19
2019-01-20T01:52:43.024Z,-2.19
2019-01-20T01:55:10.053Z,-2.21
2019-01-20T01:57:36.166Z,-2.19
2019-01-20T02:00:09.367Z,-2.17
2019-01-20T02:02:35.540Z,-2.17
2019-01-20T02:05:01.768Z,-2.17
2019-01-20T02:07:27.867Z,-2.21
2019-01-20T02:09:54.953Z,-2.21
2019-01-20T02:12:21.210Z,-2.18
2019-01-20T02:14:47.244Z,-2.20
2019-01-20T02:17:13.361Z,-2.22
2019-01-20T02:19:39.483Z,-2.23
2019-01-20T02:22:05.688Z,-2.23
2019-01-20T02:24:31.945Z,-2.27
2019-01-20T02:26:58.054Z,-2.28
2019-01-20T02:29:24.207Z,-2.29
2019-01-20T02:31:50.312Z,-2.25
2019-01-20T02:34:16.447Z,-2.30
2019-01-20T02:36:42.554Z,-2.32
2019-01-20T02:39:08.709Z,-2.33
2019-01-20T02:41:34.829Z,-2.32
2019-01-20T02:44:01.072Z,-2.32
2019-01-20T02:46:27.237Z,-2.33
2019-01-20T02:48:53.379Z,-2.41
2019-01-20T02:51:19.489Z,-2.42
2019-01-20T02:53:45.654Z,-2.44
2019-01-20T02:56:11.815Z,-2.44
2019-01-20T02:58:38.007Z,-2.50
2019-01-20T03:01:04.134Z,-2.49
2019-01-20T03:03:30.260Z,-2.54
2019-01-20T03:05:56.419Z,-2.56
2019-01-20T03:08:22.643Z,-2.57
2019-01-20T03:10:48.774Z,-2.55
2019-01-20T03:13:14.771Z,-2.58
2019-01-20T03:15:40.937Z,-2.59
2019-01-20T03:18:07.028Z,-2.64
2019-01-20T03:20:33.365Z,-2.62
2019-01-20T03:22:59.488Z,-2.66
2019-01-20T03:25:25.500Z,-2.68
2019-01-20T03:27:51.641Z,-2.66
2019-01-20T03:30:19.795Z,-2.70
2019-01-20T03:32:46.047Z,-2.72
2019-01-20T03:35:16.528Z,-2.67
2019-01-20T03:37:42.633Z,-2.67
2019-01-20T03:40:12.047Z,-2.65
2019-01-20T03:42:38.312Z,-2.69
2019-01-20T03:45:07.931Z,-2.68
2019-01-20T03:47:34.078Z,-2.70
2019-01-20T03:50:00.243Z,-2.74
2019-01-20T03:52:26.367Z,-2.76
2019-01-20T03:54:52.513Z,-2.78
2019-01-20T03:57:18.637Z,-2.82
2019-01-20T03:59:44.702Z,-2.84
2019-01-20T04:02:11.394Z,-2.87
2019-01-20T04:04:37.512Z,-2.93
2019-01-20T04:07:03.661Z,-2.99
2019-01-20T04:09:29.786Z,-3.00
2019-01-20T04:11:56.002Z,-3.07
2019-01-20T04:14:22.140Z,-3.09
2019-01-20T04:16:48.279Z,-3.10
2019-01-20T04:19:14.431Z,-3.07
2019-01-20T04:21:40.592Z,-3.14
2019-01-20T04:24:06.770Z,-3.10
2019-01-20T04:26:32.900Z,-3.14
2019-01-20T04:28:59.142Z,-3.17
2019-01-20T04:31:25.296Z,-3.18
2019-01-20T04:33:51.422Z,-3.21
2019-01-20T04:36:17.761Z,-3.24
2019-01-20T04:38:43.897Z,-3.26
2019-01-20T04:41:10.008Z,-3.28
2019-01-20T04:43:36.065Z,-3.34
2019-01-20T04:46:02.526Z,-3.35
2019-01-20T04:48:28.663Z,-3.39
2019-01-20T04:50:54.970Z,-3.44
2019-01-20T04:53:21.118Z,-3.46
2019-01-20T04:55:47.381Z,-3.51
2019-01-20T04:58:13.677Z,-3.53
2019-01-20T05:00:39.845Z,-3.61
2019-01-20T05:03:06.063Z,-3.61
2019-01-20T05:05:32.241Z,-3.67
2019-01-20T05:07:58.411Z,-3.69
2019-01-20T05:10:24.510Z,-3.69
2019-01-20T05:12:50.622Z,-3.74
2019-01-20T05:15:18.770Z,-3.72
2019-01-20T05:17:45.313Z,-3.75
2019-01-20T05:20:11.643Z,-3.75
2019-01-20T05:22:37.780Z,-3.78
2019-01-20T05:25:06.208Z,-3.77
2019-01-20T05:27:32.301Z,-3.79
2019-01-20T05:29:58.439Z,-3.79
2019-01-20T05:32:24.447Z,-3.79
2019-01-20T05:34:50.727Z,-3.81
2019-01-20T05:37:16.923Z,-3.80
2019-01-20T05:39:43.093Z,-3.80
2019-01-20T05:42:09.237Z,-3.80
2019-01-20T05:44:35.366Z,-3.78
2019-01-20T05:47:01.504Z,-3.79
2019-01-20T05:49:27.633Z,-3.79
2019-01-20T05:51:53.838Z,-3.80
2019-01-20T05:54:19.986Z,-3.79
2019-01-20T05:56:46.096Z,-3.83
2019-01-20T05:59:12.197Z,-3.87
2019-01-20T06:01:38.351Z,-3.91
2019-01-20T06:04:04.446Z,-3.91
2019-01-20T06:06:30.573Z,-3.87
2019-01-20T06:08:56.679Z,-3.89
2019-01-20T06:11:22.801Z,-3.92
2019-01-20T06:13:48.919Z,-3.95
2019-01-20T06:16:15.066Z,-3.96
2019-01-20T06:18:41.162Z,-3.94
2019-01-20T06:21:07.299Z,-3.92
2019-01-20T06:23:33.518Z,-3.92
2019-01-20T06:25:59.673Z,-3.94
2019-01-20T06:28:25.847Z,-3.96
2019-01-20T06:30:52.034Z,-4.00
2019-01-20T06:33:18.147Z,-4.01
2019-01-20T06:35:44.304Z,-4.03
2019-01-20T06:38:10.427Z,-4.03
2019-01-20T06:40:36.538Z,-4.00
2019-01-20T06:43:02.729Z,-3.96
2019-01-20T06:45:28.863Z,-3.97
2019-01-20T06:47:55.092Z,-3.95
2019-01-20T06:50:21.186Z,-3.97
2019-01-20T06:52:47.322Z,-3.98
2019-01-20T06:55:13.520Z,-3.96
2019-01-20T06:57:39.858Z,-3.95
2019-01-20T07:00:14.635Z,-3.91
2019-01-20T07:02:40.782Z,-3.91
2019-01-20T07:05:09.503Z,-3.92
2019-01-20T07:07:35.604Z,-3.94
2019-01-20T07:10:03.774Z,-4.00
2019-01-20T07:12:31.732Z,-3.98
2019-01-20T07:14:57.924Z,-3.97
2019-01-20T07:17:24.091Z,-3.99
2019-01-20T07:19:50.208Z,-4.00
2019-01-20T07:22:16.337Z,-4.03
2019-01-20T07:24:42.579Z,-4.04
2019-01-20T07:27:08.689Z,-4.04
2019-01-20T07:29:34.797Z,-4.08
2019-01-20T07:32:00.989Z,-4.08
2019-01-20T07:34:27.580Z,-4.09
2019-01-20T07:36:53.903Z,-4.05
2019-01-20T07:39:20.129Z,-3.98
2019-01-20T07:41:46.239Z,-3.98
2019-01-20T07:44:12.453Z,-3.96
2019-01-20T07:46:38.638Z,-3.95
2019-01-20T07:49:04.779Z,-3.99
2019-01-20T07:51:30.972Z,-4.01
2019-01-20T07:53:57.094Z,-3.98
2019-01-20T07:56:23.245Z,-3.98
2019-01-20T07:58:49.377Z,-3.98
2019-01-20T08:01:15.493Z,-4.00
2019-01-20T08:03:41.764Z,-4.02
2019-01-20T08:06:07.853Z,-4.02
2019-01-20T08:08:34.119Z,-4.02
2019-01-20T08:11:00.350Z,-3.96
2019-01-20T08:13:26.463Z,-3.92
2019-01-20T08:15:52.638Z,-3.90
2019-01-20T08:18:18.750Z,-3.86
2019-01-20T08:20:44.906Z,-3.83
2019-01-20T08:23:11.045Z,-3.78
2019-01-20T08:25:37.338Z,-3.77
2019-01-20T08:28:03.466Z,-3.73
2019-01-20T08:30:29.601Z,-3.65
2019-01-20T08:32:55.736Z,-3.65
2019-01-20T08:35:21.975Z,-3.56
2019-01-20T08:37:48.225Z,-3.56
2019-01-20T08:40:19.758Z,-3.53
2019-01-20T08:42:46.057Z,-3.47
2019-01-20T08:45:22.047Z,-3.38
2019-01-20T08:47:50.392Z,-3.38
2019-01-20T08:50:16.519Z,-3.30
2019-01-20T08:52:42.698Z,-3.18
2019-01-20T08:55:08.899Z,-3.18
2019-01-20T08:57:35.086Z,-3.09
2019-01-20T09:00:01.342Z,-2.94
2019-01-20T09:02:27.467Z,-2.92
2019-01-20T09:04:53.597Z,-2.82
2019-01-20T09:07:19.733Z,-2.75
2019-01-20T09:09:46.012Z,-2.69
2019-01-20T09:12:12.213Z,-2.60
2019-01-20T09:14:38.391Z,-2.51
2019-01-20T09:17:04.536Z,-2.43
2019-01-20T09:19:30.798Z,-2.40
2019-01-20T09:21:57.093Z,-2.37
2019-01-20T09:24:23.235Z,-2.30
2019-01-20T09:26:49.451Z,-2.20
2019-01-20T09:29:15.623Z,-2.12
2019-01-20T09:31:41.828Z,-2.04
2019-01-20T09:34:08.045Z,-1.98
2019-01-20T09:36:34.260Z,-1.89
2019-01-20T09:39:00.397Z,-1.79
2019-01-20T09:41:26.551Z,-1.68
2019-01-20T09:43:52.864Z,-1.64
2019-01-20T09:46:19.021Z,-1.58
2019-01-20T09:48:45.196Z,-1.49
2019-01-20T09:51:11.330Z,-1.48
2019-01-20T09:53:37.442Z,-1.39
2019-01-20T09:56:03.693Z,-1.39
2019-01-20T09:58:29.887Z,-1.35
2019-01-20T10:00:56.009Z,-1.31
2019-01-20T10:03:22.148Z,-1.24
2019-01-20T10:05:48.412Z,-1.19
2019-01-20T10:08:14.533Z,-1.18
2019-01-20T10:10:40.662Z,-1.16
2019-01-20T10:13:06.828Z,-1.10
2019-01-20T10:15:32.939Z,-1.05
2019-01-20T10:17:59.137Z,-0.97
2019-01-20T10:20:29.970Z,-0.93
2019-01-20T10:22:56.294Z,-0.90
2019-01-20T10:25:22.470Z,-0.85
2019-01-20T10:27:48.756Z,-0.75
2019-01-20T10:30:23.550Z,-0.71
2019-01-20T10:32:49.807Z,-0.66
2019-01-20T10:35:16.524Z,-0.72
2019-01-20T10:37:42.820Z,-0.62
2019-01-20T10:40:08.963Z,-0.57
2019-01-20T10:42:35.182Z,-0.51
2019-01-20T10:45:01.307Z,-0.43
2019-01-20T10:47:27.438Z,-0.37
2019-01-20T10:49:53.568Z,-0.33
2019-01-20T10:52:19.685Z,-0.23
2019-01-20T10:54:45.860Z,-0.24
2019-01-20T10:57:11.991Z,-0.23
2019-01-20T10:59:38.154Z,-0.19
2019-01-20T11:02:04.516Z,-0.14
2019-01-20T11:04:30.836Z,-0.08
2019-01-20T11:06:56.975Z,-0.07
2019-01-20T11:09:23.240Z,-0.02
2019-01-20T11:11:49.468Z,-0.02
2019-01-20T11:14:15.681Z,0.04
2019-01-20T11:16:41.831Z,0.02
2019-01-20T11:19:07.968Z,0.10
2019-01-20T11:21:34.089Z,0.20
2019-01-20T11:24:00.729Z,0.17
2019-01-20T11:26:26.968Z,0.31
2019-01-20T11:28:53.239Z,0.41
2019-01-20T11:31:19.476Z,0.33
2019-01-20T11:33:45.675Z,0.33
2019-01-20T11:36:11.895Z,0.43
2019-01-20T11:38:38.144Z,0.43
2019-01-20T11:41:04.260Z,0.48
2019-01-20T11:43:30.412Z,0.52
2019-01-20T11:45:56.515Z,0.56
2019-01-20T11:48:22.769Z,0.59
2019-01-20T11:50:49.133Z,0.64
2019-01-20T11:53:15.394Z,0.65
2019-01-20T11:55:41.532Z,0.81
2019-01-20T11:58:07.691Z,0.76
2019-01-20T12:00:34.323Z,0.78
2019-01-20T12:03:00.657Z,0.80
2019-01-20T12:05:26.764Z,0.91
2019-01-20T12:07:54.258Z,0.90
2019-01-20T12:10:20.572Z,0.88
2019-01-20T12:12:48.600Z,0.93
2019-01-20T12:15:15.272Z,0.97
2019-01-20T12:17:41.397Z,1.02
2019-01-20T12:20:10.315Z,1.07
2019-01-20T12:22:36.490Z,1.13
2019-01-20T12:25:05.844Z,1.09
2019-01-20T12:27:31.994Z,1.07
2019-01-20T12:29:58.212Z,1.17
2019-01-20T12:32:24.472Z,1.21
2019-01-20T12:34:50.604Z,1.24
2019-01-20T12:37:16.918Z,1.25
2019-01-20T12:39:43.047Z,1.28
2019-01-20T12:42:09.214Z,1.30
2019-01-20T12:44:35.450Z,1.35
2019-01-20T12:47:01.667Z,1.35
2019-01-20T12:49:27.882Z,1.44
2019-01-20T12:51:54.022Z,1.38
2019-01-20T12:54:20.138Z,1.49
2019-01-20T12:56:47.348Z,1.50
2019-01-20T12:59:13.718Z,1.62
2019-01-20T13:01:39.882Z,1.61
2019-01-20T13:04:06.106Z,1.58
2019-01-20T13:06:32.326Z,1.63
2019-01-20T13:08:58.524Z,1.85
2019-01-20T13:11:24.721Z,1.87
2019-01-20T13:13:51.029Z,1.86
2019-01-20T13:16:17.163Z,1.83
2019-01-20T13:18:43.338Z,1.84
2019-01-20T13:21:09.721Z,1.84
2019-01-20T13:23:35.936Z,1.92
2019-01-20T13:26:02.173Z,1.90
2019-01-20T13:28:28.569Z,1.95
2019-01-20T13:30:54.806Z,1.98
2019-01-20T13:33:21.178Z,1.96
2019-01-20T13:35:47.440Z,1.99
2019-01-20T13:38:13.664Z,1.99
2019-01-20T13:40:49.395Z,2.01
2019-01-20T13:43:15.636Z,1.99
2019-01-20T13:45:41.996Z,2.00
2019-01-20T13:48:08.273Z,2.10
2019-01-20T13:50:34.468Z,2.15
2019-01-20T13:53:00.694Z,2.22
2019-01-20T13:55:26.921Z,2.18
2019-01-20T13:57:53.253Z,2.18
2019-01-20T14:00:24.139Z,2.15
2019-01-20T14:02:50.429Z,2.09
2019-01-20T14:05:16.559Z,2.05
2019-01-20T14:07:42.683Z,2.03
2019-01-20T14:10:14.367Z,2.04
2019-01-20T14:12:41.064Z,1.94
2019-01-20T14:15:10.109Z,1.91
2019-01-20T14:17:36.279Z,1.99
2019-01-20T14:20:06.180Z,1.91
2019-01-20T14:22:32.517Z,1.95
2019-01-20T14:24:58.709Z,1.91
2019-01-20T14:27:25.029Z,1.95
2019-01-20T14:29:51.190Z,1.94
2019-01-20T14:32:17.395Z,1.93
2019-01-20T14:34:44.010Z,1.99
2019-01-20T14:37:10.191Z,1.99
2019-01-20T14:39:36.321Z,1.89
2019-01-20T14:42:02.490Z,1.96
2019-01-20T14:44:28.800Z,1.94
2019-01-20T14:46:55.130Z,1.89
2019-01-20T14:49:21.395Z,1.88
2019-01-20T14:51:47.913Z,1.88
2019-01-20T14:54:14.328Z,1.83
2019-01-20T14:56:40.630Z,1.83
2019-01-20T14:59:07.101Z,1.83
2019-01-20T15:01:33.507Z,1.78
2019-01-20T15:03:59.766Z,1.74
2019-01-20T15:06:26.188Z,1.74
2019-01-20T15:08:52.319Z,1.74
2019-01-20T15:11:20.197Z,1.71
2019-01-20T15:13:46.503Z,1.64
2019-01-20T15:16:12.676Z,1.63
2019-01-20T15:18:38.926Z,1.57
2019-01-20T15:21:05.048Z,1.57
2019-01-20T15:23:31.234Z,1.51
2019-01-20T15:25:57.397Z,1.41
2019-01-20T15:28:23.504Z,1.36
2019-01-20T15:30:50.114Z,1.25
2019-01-20T15:33:17.026Z,1.28
2019-01-20T15:35:43.594Z,1.23
2019-01-20T15:38:10.197Z,1.14
2019-01-20T15:40:36.467Z,1.07
2019-01-20T15:43:03.369Z,0.97
2019-01-20T15:45:29.632Z,0.92
2019-01-20T15:47:55.771Z,0.84
2019-01-20T15:50:25.666Z,0.81
2019-01-20T15:52:51.929Z,0.80
2019-01-20T15:55:18.171Z,0.77
2019-01-20T15:57:44.406Z,0.68
2019-01-20T16:00:18.801Z,0.60
2019-01-20T16:02:44.999Z,0.50
2019-01-20T16:05:11.294Z,0.44
2019-01-20T16:07:37.471Z,0.40
2019-01-20T16:10:09.879Z,0.33
2019-01-20T16:12:36.051Z,0.33
2019-01-20T16:15:03.308Z,0.22
2019-01-20T16:17:29.590Z,0.08
2019-01-20T16:19:55.722Z,0.05
2019-01-20T16:22:21.883Z,0.00
2019-01-20T16:24:48.003Z,-0.08
2019-01-20T16:27:14.620Z,-0.20
2019-01-20T16:29:40.771Z,-0.29
2019-01-20T16:32:06.945Z,-0.35
2019-01-20T16:34:33.214Z,-0.43
2019-01-20T16:36:59.328Z,-0.50
2019-01-20T16:39:26.746Z,-0.55
2019-01-20T16:41:52.936Z,-0.60
2019-01-20T16:44:19.060Z,-0.64
2019-01-20T16:46:45.249Z,-0.71
2019-01-20T16:49:11.476Z,-0.77
2019-01-20T16:51:37.647Z,-0.83
2019-01-20T16:54:03.918Z,-0.88
2019-01-20T16:56:30.080Z,-0.92
2019-01-20T16:58:56.313Z,-0.98
2019-01-20T17:01:22.470Z,-1.03
2019-01-20T17:03:48.741Z,-1.08
2019-01-20T17:06:14.868Z,-1.14
2019-01-20T17:08:41.121Z,-1.17
2019-01-20T17:11:07.319Z,-1.23
2019-01-20T17:13:33.468Z,-1.26
2019-01-20T17:15:59.715Z,-1.24
2019-01-20T17:18:25.918Z,-1.26
2019-01-20T17:20:52.072Z,-1.29
2019-01-20T17:23:18.226Z,-1.23
2019-01-20T17:25:44.464Z,-1.25
2019-01-20T17:28:10.679Z,-1.25
2019-01-20T17:30:37.327Z,-1.26
2019-01-20T17:33:05.611Z,-1.29
2019-01-20T17:35:31.772Z,-1.28
2019-01-20T17:37:57.877Z,-1.22
2019-01-20T17:40:26.249Z,-1.22
2019-01-20T17:42:52.419Z,-1.22
2019-01-20T17:45:20.894Z,-1.25
2019-01-20T17:47:47.010Z,-1.26
2019-01-20T17:50:19.871Z,-1.21
2019-01-20T17:52:46.138Z,-1.25
2019-01-20T17:55:12.505Z,-1.23
2019-01-20T17:57:38.641Z,-1.23
2019-01-20T18:00:14.341Z,-1.26
2019-01-20T18:02:40.516Z,-1.24
2019-01-20T18:05:09.570Z,-1.24
2019-01-20T18:07:35.763Z,-1.25
2019-01-20T18:10:05.810Z,-1.15
2019-01-20T18:12:32.189Z,-0.97
2019-01-20T18:14:58.623Z,-0.97
2019-01-20T18:17:24.859Z,-0.93
2019-01-20T18:19:51.028Z,-0.75
2019-01-20T18:22:17.144Z,-0.72
2019-01-20T18:24:43.304Z,-0.65
2019-01-20T18:27:09.439Z,-0.65
2019-01-20T18:29:35.614Z,-0.68
2019-01-20T18:32:01.738Z,-0.69
2019-01-20T18:34:28.014Z,-0.73
2019-01-20T18:36:54.172Z,-0.80
2019-01-20T18:39:20.358Z,-0.80
2019-01-20T18:41:46.616Z,-0.78
2019-01-20T18:44:12.892Z,-0.78
2019-01-20T18:46:39.026Z,-0.83
2019-01-20T18:49:05.203Z,-0.85
2019-01-20T18:51:31.325Z,-0.81
2019-01-20T18:53:57.560Z,-0.85
2019-01-20T18:56:23.707Z,-0.89
2019-01-20T18:58:49.893Z,-0.90
2019-01-20T19:01:16.025Z,-0.82
2019-01-20T19:03:42.281Z,-0.84
2019-01-20T19:06:08.491Z,-0.84
2019-01-20T19:08:34.623Z,-0.92
2019-01-20T19:11:00.879Z,-0.92
2019-01-20T19:13:27.013Z,-0.97
2019-01-20T19:15:53.264Z,-1.05
2019-01-20T19:18:19.563Z,-1.10
2019-01-20T19:20:45.761Z,-1.15
2019-01-20T19:23:11.901Z,-1.18
2019-01-20T19:25:38.147Z,-1.19
2019-01-20T19:28:04.304Z,-1.26
2019-01-20T19:30:32.812Z,-1.33
2019-01-20T19:32:58.938Z,-1.37
2019-01-20T19:35:25.256Z,-1.42
2019-01-20T19:37:51.490Z,-1.47
2019-01-20T19:40:17.874Z,-1.49
2019-01-20T19:42:44.106Z,-1.54
2019-01-20T19:45:15.898Z,-1.57
2019-01-20T19:47:42.046Z,-1.56
2019-01-20T19:50:12.992Z,-1.48
2019-01-20T19:52:39.410Z,-1.52
2019-01-20T19:55:14.911Z,-1.48
2019-01-20T19:57:41.154Z,-1.55
2019-01-20T20:00:10.957Z,-1.59
2019-01-20T20:02:37.107Z,-1.64
2019-01-20T20:05:06.882Z,-1.68
2019-01-20T20:07:33.134Z,-1.68
2019-01-20T20:09:59.279Z,-1.73
2019-01-20T20:12:25.406Z,-1.74
2019-01-20T20:14:51.685Z,-1.72
2019-01-20T20:17:17.868Z,-1.78
2019-01-20T20:19:43.995Z,-1.82
2019-01-20T20:22:10.166Z,-1.87
2019-01-20T20:24:36.358Z,-1.86
2019-01-20T20:27:02.503Z,-1.86
2019-01-20T20:29:28.676Z,-1.87
2019-01-20T20:31:54.897Z,-1.89
2019-01-20T20:34:21.039Z,-1.90
2019-01-20T20:36:47.169Z,-1.94
2019-01-20T20:39:13.492Z,-1.95
2019-01-20T20:41:39.707Z,-1.93
2019-01-20T20:44:05.829Z,-1.88
2019-01-20T20:46:32.080Z,-1.89
2019-01-20T20:48:58.228Z,-1.89
2019-01-20T20:51:24.396Z,-1.91
2019-01-20T20:53:50.535Z,-1.89
2019-01-20T20:56:16.703Z,-1.94
2019-01-20T20:58:42.937Z,-1.96
2019-01-20T21:01:09.178Z,-1.99
2019-01-20T21:03:35.338Z,-2.03
2019-01-20T21:06:01.468Z,-2.04
2019-01-20T21:08:27.653Z,-2.11
2019-01-20T21:10:53.866Z,-2.16
2019-01-20T21:13:20.026Z,-2.19
2019-01-20T21:15:46.151Z,-2.29
2019-01-20T21:18:12.269Z,-2.32
2019-01-20T21:20:38.448Z,-2.32
2019-01-20T21:23:11.766Z,-2.37
2019-01-20T21:25:32.743Z,-2.42
2019-01-20T21:27:58.926Z,-2.46
2019-01-20T21:30:26.510Z,-2.45
2019-01-20T21:32:52.897Z,-2.53
2019-01-20T21:35:19.250Z,-2.58
2019-01-20T21:37:45.405Z,-2.61
2019-01-20T21:40:14.151Z,-2.62
2019-01-20T21:42:40.308Z,-2.68
2019-01-20T21:45:08.983Z,-2.72
2019-01-20T21:47:35.112Z,-2.75
2019-01-20T21:50:01.363Z,-2.78
2019-01-20T21:52:27.650Z,-2.78
2019-01-20T21:54:53.833Z,-2.78
2019-01-20T21:57:19.986Z,-2.79
2019-01-20T21:59:46.216Z,-2.80
2019-01-20T22:02:12.480Z,-2.78
2019-01-20T22:04:38.648Z,-2.74
2019-01-20T22:07:04.890Z,-2.64
2019-01-20T22:09:31.064Z,-2.63
2019-01-20T22:11:57.312Z,-2.65
2019-01-20T22:14:23.472Z,-2.66
2019-01-20T22:16:52.785Z,-2.65
2019-01-20T22:19:17.796Z,-2.64
2019-01-20T22:21:43.897Z,-2.62
2019-01-20T22:24:10.014Z,-2.63
2019-01-20T22:26:36.170Z,-2.66
2019-01-20T22:29:02.333Z,-2.65
2019-01-20T22:31:28.594Z,-2.67
2019-01-20T22:33:54.824Z,-2.69
2019-01-20T22:36:21.115Z,-2.68
2019-01-20T22:38:47.255Z,-2.67
2019-01-20T22:41:13.370Z,-2.68
2019-01-20T22:43:39.648Z,-2.68
2019-01-20T22:46:05.897Z,-2.69
2019-01-20T22:48:32.066Z,-2.72
2019-01-20T22:50:58.531Z,-2.78
2019-01-20T22:53:24.657Z,-2.83
2019-01-20T22:55:50.809Z,-2.87
2019-01-20T22:58:16.986Z,-2.95
2019-01-20T23:00:47.707Z,-2.98
2019-01-20T23:03:14.107Z,-2.97
2019-01-20T23:05:40.381Z,-3.00
2019-01-20T23:08:06.619Z,-3.03
2019-01-20T23:10:32.865Z,-3.10
2019-01-20T23:12:58.865Z,-3.12
2019-01-20T23:15:25.010Z,-3.11
2019-01-20T23:17:51.090Z,-3.13
2019-01-20T23:20:17.216Z,-3.17
2019-01-20T23:22:43.327Z,-3.23
2019-01-20T23:25:09.471Z,-3.28
2019-01-20T23:27:35.557Z,-3.31
2019-01-20T23:30:01.807Z,-3.33
2019-01-20T23:32:27.919Z,-3.35
2019-01-20T23:34:54.133Z,-3.42
2019-01-20T23:37:20.295Z,-3.46
2019-01-20T23:39:46.445Z,-3.45
2019-01-20T23:42:12.551Z,-3.45
2019-01-20T23:44:38.719Z,-3.48
2019-01-20T23:47:04.834Z,-3.53
2019-01-20T23:49:31.070Z,-3.62
2019-01-20T23:51:57.294Z,-3.61
2019-01-20T23:54:23.374Z,-3.67
2019-01-20T23:56:49.596Z,-3.62
2019-01-20T23:59:15.746Z,-3.57
